createdAt,value
2017-03-01T00:00:03.680Z,75.11
2017-03-01T00:00:25.425Z,75.29
2017-03-01T00:00:51.901Z,75.12
2017-03-01T00:01:13.599Z,75.78
2017-03-01T00:01:40.188Z,75.57
2017-03-01T00:02:01.878Z,75.64
2017-03-01T00:02:23.607Z,75.70
2017-03-01T00:02:45.323Z,74.92
2017-03-01T00:03:07.142Z,75.11
2017-03-01T00:03:28.840Z,74.99
2017-03-01T00:03:55.320Z,75.33
2017-03-01T00:04:17.004Z,75.10
2017-03-01T00:05:20.275Z,74.95
2017-03-01T00:05:41.981Z,74.51
2017-03-01T00:06:03.682Z,74.67
2017-03-01T00:06:25.491Z,74.61
2017-03-01T00:06:47.184Z,74.79
2017-03-01T00:07:08.884Z,74.76
2017-03-01T00:07:40.136Z,74.15
2017-03-01T00:08:01.900Z,74.40
2017-03-01T00:08:33.159Z,74.18
2017-03-01T00:08:54.973Z,74.46
2017-03-01T00:09:26.227Z,74.50
2017-03-01T00:09:47.937Z,74.25
2017-03-01T00:10:09.744Z,74.49
2017-03-01T00:10:31.449Z,74.33
2017-03-01T00:10:53.140Z,74.15
2017-03-01T00:11:24.390Z,74.36
2017-03-01T00:11:56.207Z,74.14
2017-03-01T00:12:17.923Z,74.16
2017-03-01T00:12:44.486Z,73.84
2017-03-01T00:13:06.214Z,73.74
2017-03-01T00:13:37.484Z,73.62
2017-03-01T00:13:59.264Z,73.57
2017-03-01T00:14:20.983Z,73.74
2017-03-01T00:14:47.449Z,74.17
2017-03-01T00:15:09.233Z,74.05
2017-03-01T00:15:30.942Z,74.09
2017-03-01T00:16:02.190Z,73.72
2017-03-01T00:16:24.007Z,73.76
2017-03-01T00:16:45.724Z,73.98
2017-03-01T00:17:16.973Z,74.25
2017-03-01T00:17:38.778Z,73.97
2017-03-01T00:18:41.287Z,74.05
2017-03-01T00:19:03.062Z,73.73
2017-03-01T00:19:24.756Z,73.80
2017-03-01T00:19:46.458Z,73.77
2017-03-01T00:20:08.154Z,73.89
2017-03-01T00:20:39.420Z,73.89
2017-03-01T00:21:01.268Z,74.03
2017-03-01T00:21:22.964Z,74.01
2017-03-01T00:22:30.925Z,73.98
2017-03-01T00:22:52.650Z,74.34
2017-03-01T00:23:59.926Z,74.06
2017-03-01T00:24:21.628Z,73.74
2017-03-01T00:24:43.334Z,73.64
2017-03-01T00:25:05.127Z,73.58
2017-03-01T00:25:26.834Z,73.68
2017-03-01T00:25:48.545Z,73.69
2017-03-01T00:26:10.246Z,73.96
2017-03-01T00:26:32.037Z,73.97
2017-03-01T00:26:53.744Z,73.84
2017-03-01T00:27:20.227Z,73.99
2017-03-01T00:27:41.926Z,73.84
2017-03-01T00:28:44.519Z,73.60
2017-03-01T00:30:38.289Z,73.57
2017-03-01T00:31:00.211Z,73.68
2017-03-01T00:31:31.553Z,73.58
2017-03-01T00:32:33.767Z,74.04
2017-03-01T00:33:00.372Z,73.71
2017-03-01T00:33:34.739Z,73.49
2017-03-01T00:34:33.258Z,73.74
2017-03-01T00:34:55.238Z,73.81
2017-03-01T00:35:24.782Z,74.07
2017-03-01T00:35:53.870Z,74.24
2017-03-01T00:36:18.221Z,73.82
2017-03-01T00:36:47.769Z,73.98
2017-03-01T00:37:21.714Z,73.78
2017-03-01T00:38:20.583Z,73.79
2017-03-01T00:39:17.622Z,74.11
2017-03-01T00:39:43.884Z,73.73
2017-03-01T00:40:47.365Z,73.77
2017-03-01T00:41:18.756Z,73.64
2017-03-01T00:42:23.761Z,73.66
2017-03-01T00:42:51.786Z,73.45
2017-03-01T00:43:18.412Z,73.21
2017-03-01T00:43:49.737Z,72.90
2017-03-01T00:44:21.952Z,73.03
2017-03-01T00:44:56.051Z,73.16
2017-03-01T00:45:25.703Z,73.30
2017-03-01T00:45:54.793Z,73.28
2017-03-01T00:47:09.415Z,73.63
2017-03-01T00:47:41.795Z,73.23
2017-03-01T00:48:15.895Z,73.39
2017-03-01T00:48:37.673Z,73.52
2017-03-01T00:48:59.440Z,73.65
2017-03-01T00:49:52.493Z,73.89
2017-03-01T00:50:19.025Z,73.97
2017-03-01T00:50:40.784Z,74.13
2017-03-01T00:51:02.564Z,74.08
2017-03-01T00:51:29.561Z,74.20
2017-03-01T00:51:52.454Z,74.43
2017-03-01T00:52:21.441Z,74.37
2017-03-01T00:52:53.651Z,74.24
2017-03-01T00:53:17.936Z,74.45
2017-03-01T00:54:10.753Z,75.00
2017-03-01T00:54:32.496Z,75.14
2017-03-01T00:54:59.111Z,75.22
2017-03-01T00:55:20.902Z,75.27
2017-03-01T00:55:53.431Z,75.32
2017-03-01T00:56:25.079Z,75.60
2017-03-01T00:56:50.438Z,75.68
2017-03-01T00:57:19.480Z,75.86
2017-03-01T00:57:46.237Z,76.10
2017-03-01T00:58:48.441Z,76.48
2017-03-01T00:59:19.878Z,76.62
2017-03-01T00:59:46.375Z,76.81
2017-03-01T01:00:08.096Z,76.92
2017-03-01T01:00:34.617Z,76.90
2017-03-01T01:01:01.795Z,77.05
2017-03-01T01:01:35.686Z,77.06
2017-03-01T01:02:02.331Z,76.97
2017-03-01T01:03:04.858Z,77.38
2017-03-01T01:03:26.599Z,77.38
2017-03-01T01:03:53.403Z,77.54
2017-03-01T01:04:46.660Z,77.46
2017-03-01T01:05:08.708Z,77.58
2017-03-01T01:05:35.239Z,77.48
2017-03-01T01:06:04.726Z,77.57
2017-03-01T01:07:03.302Z,77.58
2017-03-01T01:07:25.568Z,77.59
2017-03-01T01:07:54.940Z,77.66
2017-03-01T01:08:19.294Z,77.69
2017-03-01T01:08:45.816Z,77.78
2017-03-01T01:09:10.480Z,77.76
2017-03-01T01:09:37.118Z,78.05
2017-03-01T01:10:01.895Z,78.04
2017-03-01T01:10:28.406Z,78.06
2017-03-01T01:10:50.234Z,78.08
2017-03-01T01:11:16.892Z,78.04
2017-03-01T01:12:14.987Z,78.17
2017-03-01T01:13:16.618Z,78.65
2017-03-01T01:13:43.382Z,78.65
2017-03-01T01:14:10.638Z,78.86
2017-03-01T01:14:39.981Z,79.04
2017-03-01T01:15:11.590Z,79.14
2017-03-01T01:16:21.730Z,79.21
2017-03-01T01:17:25.005Z,80.05
2017-03-01T01:17:51.584Z,80.03
2017-03-01T01:18:13.342Z,79.95
2017-03-01T01:19:42.857Z,80.82
2017-03-01T01:20:08.590Z,81.20
2017-03-01T01:20:39.857Z,80.94
2017-03-01T01:23:05.493Z,81.17
2017-03-01T01:23:32.028Z,81.71
2017-03-01T01:23:59.644Z,81.61
2017-03-01T01:24:26.422Z,81.59
2017-03-01T01:24:53.980Z,81.95
2017-03-01T01:25:15.758Z,82.11
2017-03-01T01:25:43.531Z,82.01
2017-03-01T01:26:11.430Z,82.42
2017-03-01T01:26:38.484Z,82.60
2017-03-01T01:27:04.253Z,82.43
2017-03-01T01:27:26.050Z,82.53
2017-03-01T01:27:57.416Z,82.75
2017-03-01T01:28:19.236Z,83.12
2017-03-01T01:28:48.503Z,83.08
2017-03-01T01:29:15.660Z,82.86
2017-03-01T01:29:47.239Z,83.18
2017-03-01T01:30:50.381Z,82.47
2017-03-01T01:31:12.464Z,82.66
2017-03-01T01:32:18.033Z,82.34
2017-03-01T01:33:14.160Z,82.71
2017-03-01T01:33:45.649Z,82.26
2017-03-01T01:34:07.478Z,82.08
2017-03-01T01:34:35.303Z,82.47
2017-03-01T01:35:02.106Z,82.07
2017-03-01T01:35:29.576Z,81.87
2017-03-01T01:35:58.938Z,81.99
2017-03-01T01:36:20.757Z,81.93
2017-03-01T01:36:54.709Z,81.99
2017-03-01T01:37:21.249Z,82.17
2017-03-01T01:37:46.164Z,81.97
2017-03-01T01:38:20.036Z,81.81
2017-03-01T01:38:44.815Z,81.86
2017-03-01T01:39:18.604Z,81.65
2017-03-01T01:39:48.016Z,81.70
2017-03-01T01:40:09.735Z,81.74
2017-03-01T01:40:31.434Z,81.51
2017-03-01T01:40:53.127Z,81.74
2017-03-01T01:41:14.849Z,81.93
2017-03-01T01:41:36.545Z,81.81
2017-03-01T01:41:58.234Z,81.65
2017-03-01T01:42:19.929Z,81.59
2017-03-01T01:42:46.449Z,81.17
2017-03-01T01:43:08.144Z,81.13
2017-03-01T01:43:29.898Z,81.21
2017-03-01T01:43:51.663Z,81.00
2017-03-01T01:44:13.436Z,81.37
2017-03-01T01:44:40.080Z,81.55
2017-03-01T01:45:01.811Z,81.51
2017-03-01T01:45:28.292Z,81.56
2017-03-01T01:45:54.795Z,81.59
2017-03-01T01:46:21.284Z,81.46
2017-03-01T01:46:42.992Z,81.53
2017-03-01T01:47:09.479Z,81.35
2017-03-01T01:47:31.206Z,81.33
2017-03-01T01:47:57.693Z,81.52
2017-03-01T01:48:19.388Z,81.03
2017-03-01T01:48:41.149Z,80.63
2017-03-01T01:49:07.654Z,80.88
2017-03-01T01:49:29.401Z,80.98
2017-03-01T01:49:55.904Z,81.16
2017-03-01T01:51:07.956Z,80.87
2017-03-01T01:51:29.703Z,80.19
2017-03-01T01:51:56.187Z,80.16
2017-03-01T01:52:17.890Z,80.49
2017-03-01T01:52:44.368Z,80.39
2017-03-01T01:53:06.070Z,80.54
2017-03-01T01:53:27.789Z,80.61
2017-03-01T01:53:54.283Z,80.93
2017-03-01T01:54:16.009Z,80.90
2017-03-01T01:54:42.500Z,80.98
2017-03-01T01:55:04.209Z,80.85
2017-03-01T01:55:35.453Z,80.74
2017-03-01T01:55:57.149Z,80.96
2017-03-01T01:56:18.840Z,80.28
2017-03-01T01:56:40.549Z,80.69
2017-03-01T01:57:02.250Z,80.67
2017-03-01T01:57:23.972Z,80.84
2017-03-01T01:57:46.788Z,80.86
2017-03-01T01:58:08.618Z,81.07
2017-03-01T01:58:39.886Z,81.01
2017-03-01T01:59:01.616Z,81.25
2017-03-01T01:59:28.103Z,81.23
2017-03-01T01:59:49.837Z,81.08
2017-03-01T02:00:11.670Z,80.98
2017-03-01T02:00:33.293Z,81.06
2017-03-01T02:00:55.005Z,81.22
2017-03-01T02:01:16.748Z,81.24
2017-03-01T02:01:38.490Z,81.04
2017-03-01T02:02:00.214Z,81.21
2017-03-01T02:02:21.957Z,81.08
2017-03-01T02:02:53.216Z,81.44
2017-03-01T02:03:14.912Z,81.55
2017-03-01T02:03:36.680Z,81.68
2017-03-01T02:03:58.494Z,81.52
2017-03-01T02:04:20.214Z,81.36
2017-03-01T02:04:41.936Z,81.09
2017-03-01T02:05:03.702Z,81.09
2017-03-01T02:05:25.434Z,81.34
2017-03-01T02:05:47.158Z,81.54
2017-03-01T02:06:08.883Z,81.39
2017-03-01T02:06:31.634Z,81.58
2017-03-01T02:07:02.886Z,81.82
2017-03-01T02:07:24.585Z,81.83
2017-03-01T02:07:51.107Z,81.83
2017-03-01T02:08:15.433Z,81.74
2017-03-01T02:08:41.937Z,81.94
2017-03-01T02:09:03.660Z,82.03
2017-03-01T02:09:30.141Z,81.87
2017-03-01T02:09:51.847Z,81.92
2017-03-01T02:10:18.313Z,82.09
2017-03-01T02:10:40.015Z,82.22
2017-03-01T02:11:06.506Z,82.48
2017-03-01T02:11:28.233Z,82.41
2017-03-01T02:11:54.736Z,82.36
2017-03-01T02:12:16.496Z,82.57
2017-03-01T02:12:38.261Z,82.68
2017-03-01T02:13:41.375Z,82.66
2017-03-01T02:14:03.129Z,82.75
2017-03-01T02:15:06.221Z,82.65
2017-03-01T02:15:27.989Z,82.87
2017-03-01T02:15:49.712Z,82.87
2017-03-01T02:16:16.202Z,82.75
2017-03-01T02:16:37.943Z,82.61
2017-03-01T02:17:04.435Z,83.07
2017-03-01T02:17:26.158Z,83.05
2017-03-01T02:17:50.409Z,82.87
2017-03-01T02:18:12.019Z,82.78
2017-03-01T02:18:43.289Z,82.76
2017-03-01T02:19:05.043Z,82.80
2017-03-01T02:19:36.298Z,82.81
2017-03-01T02:19:58.006Z,82.90
2017-03-01T02:20:29.264Z,83.31
2017-03-01T02:20:50.973Z,83.22
2017-03-01T02:21:22.222Z,83.07
2017-03-01T02:21:43.921Z,83.14
2017-03-01T02:22:15.189Z,83.01
2017-03-01T02:22:36.889Z,83.29
2017-03-01T02:23:03.369Z,83.53
2017-03-01T02:23:25.056Z,83.48
2017-03-01T02:23:51.532Z,83.52
2017-03-01T02:24:13.225Z,83.63
2017-03-01T02:24:39.712Z,83.79
2017-03-01T02:25:01.408Z,83.70
2017-03-01T02:25:27.900Z,83.46
2017-03-01T02:25:49.610Z,83.57
2017-03-01T02:26:11.335Z,83.57
2017-03-01T02:26:42.624Z,83.36
2017-03-01T02:27:04.327Z,83.40
2017-03-01T02:27:35.606Z,83.58
2017-03-01T02:27:57.345Z,83.46
2017-03-01T02:28:28.638Z,83.28
2017-03-01T02:28:50.313Z,83.47
2017-03-01T02:29:21.558Z,83.28
2017-03-01T02:29:43.273Z,83.22
2017-03-01T02:30:46.363Z,83.38
2017-03-01T02:31:08.093Z,83.08
2017-03-01T02:31:29.795Z,83.11
2017-03-01T02:31:56.285Z,83.16
2017-03-01T02:32:17.981Z,83.10
2017-03-01T02:33:21.037Z,82.97
2017-03-01T02:33:42.724Z,83.01
2017-03-01T02:34:09.198Z,83.04
2017-03-01T02:34:30.905Z,83.00
2017-03-01T02:34:57.411Z,82.76
2017-03-01T02:35:19.139Z,82.69
2017-03-01T02:35:45.898Z,82.61
2017-03-01T02:36:07.605Z,82.53
2017-03-01T02:36:29.302Z,82.51
2017-03-01T02:36:55.782Z,82.75
2017-03-01T02:37:17.485Z,82.88
2017-03-01T02:37:48.761Z,82.97
2017-03-01T02:38:10.463Z,83.11
2017-03-01T02:39:13.497Z,82.82
2017-03-01T02:39:37.623Z,82.84
2017-03-01T02:40:08.881Z,82.74
2017-03-01T02:41:11.594Z,82.86
2017-03-01T02:41:33.325Z,83.03
2017-03-01T02:41:55.058Z,83.03
2017-03-01T02:42:21.574Z,82.90
2017-03-01T02:42:43.269Z,82.69
2017-03-01T02:43:14.531Z,82.69
2017-03-01T02:43:36.285Z,82.69
2017-03-01T02:44:07.540Z,82.73
2017-03-01T02:44:29.263Z,82.88
2017-03-01T02:45:00.538Z,82.75
2017-03-01T02:45:22.253Z,82.88
2017-03-01T02:45:53.574Z,82.70
2017-03-01T02:46:15.287Z,82.65
2017-03-01T02:47:18.356Z,82.68
2017-03-01T02:47:40.073Z,82.72
2017-03-01T02:48:01.772Z,82.77
2017-03-01T02:48:28.251Z,82.75
2017-03-01T02:48:49.977Z,82.86
2017-03-01T02:49:21.248Z,83.20
2017-03-01T02:49:42.951Z,83.17
2017-03-01T02:50:50.259Z,83.21
2017-03-01T02:51:12.147Z,83.14
2017-03-01T02:51:38.717Z,83.02
2017-03-01T02:52:05.214Z,83.03
2017-03-01T02:52:31.735Z,83.28
2017-03-01T02:52:55.901Z,83.23
2017-03-01T02:53:22.387Z,83.36
2017-03-01T02:53:44.128Z,83.14
2017-03-01T02:54:51.439Z,83.18
2017-03-01T02:55:13.270Z,83.08
2017-03-01T02:55:35.023Z,83.05
2017-03-01T02:55:56.761Z,83.04
2017-03-01T02:56:18.504Z,83.34
2017-03-01T02:57:25.926Z,83.06
2017-03-01T02:57:50.486Z,83.10
2017-03-01T02:58:48.708Z,83.35
2017-03-01T02:59:10.563Z,83.43
2017-03-01T03:00:13.592Z,83.04
2017-03-01T03:00:35.473Z,83.10
2017-03-01T03:01:38.589Z,83.23
2017-03-01T03:02:00.604Z,83.10
2017-03-01T03:02:24.257Z,83.23
2017-03-01T03:02:46.003Z,83.20
2017-03-01T03:03:53.481Z,83.10
2017-03-01T03:04:15.432Z,83.11
2017-03-01T03:05:16.014Z,83.26
2017-03-01T03:05:37.759Z,83.42
2017-03-01T03:06:09.149Z,83.31
2017-03-01T03:06:43.251Z,83.47
2017-03-01T03:07:04.966Z,83.40
2017-03-01T03:07:26.810Z,83.35
2017-03-01T03:07:53.321Z,83.30
2017-03-01T03:08:16.178Z,83.33
2017-03-01T03:09:18.739Z,83.48
2017-03-01T03:09:40.483Z,83.32
2017-03-01T03:10:02.244Z,83.39
2017-03-01T03:10:26.195Z,83.36
2017-03-01T03:10:47.932Z,83.49
2017-03-01T03:11:09.696Z,83.44
2017-03-01T03:11:31.665Z,83.51
2017-03-01T03:11:53.427Z,83.48
2017-03-01T03:12:15.203Z,83.48
2017-03-01T03:12:36.971Z,83.33
2017-03-01T03:13:49.044Z,83.46
2017-03-01T03:14:10.859Z,83.50
2017-03-01T03:14:37.368Z,83.73
2017-03-01T03:14:59.088Z,83.49
2017-03-01T03:16:01.647Z,83.74
2017-03-01T03:16:28.153Z,83.93
2017-03-01T03:16:50.976Z,83.76
2017-03-01T03:17:54.234Z,83.55
2017-03-01T03:18:57.277Z,83.35
2017-03-01T03:19:19.123Z,83.32
2017-03-01T03:19:40.856Z,83.22
2017-03-01T03:20:07.534Z,83.35
2017-03-01T03:20:29.280Z,83.37
2017-03-01T03:20:55.856Z,83.39
2017-03-01T03:21:27.127Z,83.49
2017-03-01T03:21:48.853Z,83.59
2017-03-01T03:22:15.380Z,83.49
2017-03-01T03:22:37.142Z,83.42
2017-03-01T03:23:03.655Z,83.24
2017-03-01T03:23:25.500Z,83.28
2017-03-01T03:23:51.998Z,83.27
2017-03-01T03:24:18.481Z,83.16
2017-03-01T03:24:40.219Z,83.06
2017-03-01T03:25:02.048Z,83.01
2017-03-01T03:25:33.319Z,83.01
2017-03-01T03:25:55.059Z,82.75
2017-03-01T03:26:16.818Z,82.83
2017-03-01T03:26:48.110Z,82.91
2017-03-01T03:27:09.942Z,82.96
2017-03-01T03:27:31.696Z,82.85
2017-03-01T03:27:53.471Z,82.92
2017-03-01T03:28:15.229Z,82.97
2017-03-01T03:28:36.955Z,82.95
2017-03-01T03:28:58.766Z,82.90
2017-03-01T03:29:20.497Z,83.08
2017-03-01T03:29:51.791Z,83.16
2017-03-01T03:30:13.651Z,83.17
2017-03-01T03:30:40.145Z,83.09
2017-03-01T03:31:01.971Z,83.16
2017-03-01T03:31:28.507Z,83.33
2017-03-01T03:31:50.235Z,83.37
2017-03-01T03:32:16.764Z,83.47
2017-03-01T03:33:24.187Z,83.50
2017-03-01T03:33:46.052Z,83.49
2017-03-01T03:34:12.569Z,83.57
2017-03-01T03:34:37.204Z,83.47
2017-03-01T03:35:08.540Z,83.56
2017-03-01T03:35:30.288Z,83.58
2017-03-01T03:35:52.029Z,83.61
2017-03-01T03:36:18.510Z,83.72
2017-03-01T03:36:40.241Z,83.59
2017-03-01T03:37:11.515Z,83.61
2017-03-01T03:37:36.279Z,83.50
2017-03-01T03:38:05.337Z,83.61
2017-03-01T03:38:27.106Z,83.70
2017-03-01T03:38:58.402Z,83.66
2017-03-01T03:39:51.366Z,83.80
2017-03-01T03:40:13.121Z,83.74
2017-03-01T03:40:44.410Z,83.93
2017-03-01T03:41:06.266Z,83.84
2017-03-01T03:41:37.550Z,83.83
2017-03-01T03:41:59.447Z,83.84
2017-03-01T03:42:25.937Z,83.72
2017-03-01T03:42:47.791Z,83.74
2017-03-01T03:43:19.051Z,83.87
2017-03-01T03:43:40.778Z,83.86
2017-03-01T03:44:12.065Z,83.77
2017-03-01T03:44:33.887Z,83.57
2017-03-01T03:45:05.142Z,83.40
2017-03-01T03:45:27.903Z,83.28
2017-03-01T03:45:54.399Z,83.50
2017-03-01T03:46:16.240Z,83.71
2017-03-01T03:46:37.945Z,83.74
2017-03-01T03:46:59.841Z,83.79
2017-03-01T03:47:21.587Z,83.71
2017-03-01T03:47:43.321Z,83.71
2017-03-01T03:48:09.990Z,83.60
2017-03-01T03:48:31.833Z,83.62
2017-03-01T03:49:03.114Z,83.82
2017-03-01T03:49:24.851Z,83.76
2017-03-01T03:50:27.947Z,83.62
2017-03-01T03:50:49.848Z,83.62
2017-03-01T03:52:01.933Z,83.65
2017-03-01T03:52:25.691Z,83.64
2017-03-01T03:52:47.402Z,83.61
2017-03-01T03:53:13.904Z,83.59
2017-03-01T03:53:35.611Z,83.50
2017-03-01T03:53:57.319Z,83.47
2017-03-01T03:54:28.570Z,83.44
2017-03-01T03:54:50.429Z,83.57
2017-03-01T03:55:21.680Z,83.54
2017-03-01T03:55:46.042Z,83.59
2017-03-01T03:56:12.529Z,83.52
2017-03-01T03:56:34.236Z,83.46
2017-03-01T03:57:00.751Z,83.46
2017-03-01T03:57:22.494Z,83.36
2017-03-01T03:57:44.221Z,83.47
2017-03-01T03:58:10.707Z,83.23
2017-03-01T03:58:32.769Z,83.37
2017-03-01T03:58:57.390Z,83.37
2017-03-01T03:59:19.095Z,83.43
2017-03-01T03:59:45.691Z,83.46
2017-03-01T04:00:07.418Z,83.33
2017-03-01T04:00:29.203Z,83.43
2017-03-01T04:01:32.278Z,83.36
2017-03-01T04:01:56.733Z,83.54
2017-03-01T04:02:59.879Z,83.19
2017-03-01T04:03:21.618Z,83.13
2017-03-01T04:05:45.333Z,83.38
2017-03-01T04:06:09.675Z,83.05
2017-03-01T04:06:31.555Z,83.06
2017-03-01T04:06:56.369Z,83.04
2017-03-01T04:07:20.707Z,83.24
2017-03-01T04:07:52.791Z,82.89
2017-03-01T04:09:20.688Z,83.11
2017-03-01T04:09:47.215Z,82.85
2017-03-01T04:10:57.496Z,83.08
2017-03-01T04:11:53.328Z,83.16
2017-03-01T04:12:20.599Z,83.25
2017-03-01T04:12:54.838Z,83.22
2017-03-01T04:13:29.011Z,82.96
2017-03-01T04:14:31.712Z,82.95
2017-03-01T04:14:54.024Z,83.05
2017-03-01T04:16:33.324Z,82.84
2017-03-01T04:17:00.441Z,82.90
2017-03-01T04:17:27.368Z,82.87
2017-03-01T04:17:56.647Z,83.14
2017-03-01T04:18:23.199Z,82.86
2017-03-01T04:19:29.855Z,82.74
2017-03-01T04:19:56.348Z,82.81
2017-03-01T04:20:18.093Z,82.63
2017-03-01T04:20:39.981Z,82.77
2017-03-01T04:21:07.538Z,82.96
2017-03-01T04:21:42.211Z,82.58
2017-03-01T04:22:07.514Z,82.52
2017-03-01T04:22:35.107Z,82.60
2017-03-01T04:24:12.765Z,82.86
2017-03-01T04:24:39.962Z,82.94
2017-03-01T04:25:07.475Z,82.74
2017-03-01T04:25:34.021Z,82.66
2017-03-01T04:26:00.538Z,82.80
2017-03-01T04:26:22.452Z,82.86
2017-03-01T04:26:49.335Z,82.83
2017-03-01T04:27:15.934Z,82.98
2017-03-01T04:27:45.031Z,82.95
2017-03-01T04:28:09.646Z,83.02
2017-03-01T04:29:10.216Z,82.99
2017-03-01T04:29:34.559Z,82.91
2017-03-01T04:30:04.136Z,82.93
2017-03-01T04:30:31.405Z,83.19
2017-03-01T04:31:05.354Z,82.93
2017-03-01T04:31:31.988Z,83.13
2017-03-01T04:32:01.453Z,83.14
2017-03-01T04:32:33.062Z,83.19
2017-03-01T04:32:54.941Z,83.07
2017-03-01T04:33:16.810Z,82.88
2017-03-01T04:33:43.309Z,83.01
2017-03-01T04:34:39.589Z,82.94
2017-03-01T04:35:38.120Z,83.05
2017-03-01T04:36:12.339Z,83.09
2017-03-01T04:36:37.184Z,83.01
2017-03-01T04:37:08.375Z,83.08
2017-03-01T04:37:30.089Z,83.25
2017-03-01T04:37:54.778Z,83.20
2017-03-01T04:38:22.121Z,83.14
2017-03-01T04:39:18.385Z,83.23
2017-03-01T04:39:42.666Z,83.20
2017-03-01T04:40:04.390Z,83.22
2017-03-01T04:40:30.884Z,83.16
2017-03-01T04:40:52.678Z,83.24
2017-03-01T04:41:14.554Z,83.26
2017-03-01T04:41:51.526Z,83.31
2017-03-01T04:42:18.125Z,83.30
2017-03-01T04:42:46.001Z,83.21
2017-03-01T04:43:22.656Z,83.33
2017-03-01T04:43:49.162Z,83.33
2017-03-01T04:44:16.067Z,82.96
2017-03-01T04:44:42.572Z,83.02
2017-03-01T04:45:04.350Z,83.16
2017-03-01T04:45:29.136Z,82.90
2017-03-01T04:45:53.871Z,82.97
2017-03-01T04:46:23.198Z,82.83
2017-03-01T04:46:54.545Z,82.93
2017-03-01T04:47:21.415Z,82.94
2017-03-01T04:47:48.403Z,82.93
2017-03-01T04:48:15.079Z,82.74
2017-03-01T04:48:41.629Z,82.81
2017-03-01T04:49:08.846Z,82.79
2017-03-01T04:49:35.690Z,82.61
2017-03-01T04:50:34.438Z,82.38
2017-03-01T04:51:01.185Z,82.55
2017-03-01T04:51:28.302Z,82.71
2017-03-01T04:53:07.670Z,82.61
2017-03-01T04:53:59.782Z,82.28
2017-03-01T04:54:26.264Z,82.48
2017-03-01T04:54:47.990Z,82.43
2017-03-01T04:55:09.749Z,82.39
2017-03-01T04:55:31.497Z,82.35
2017-03-01T04:55:53.196Z,82.28
2017-03-01T04:56:19.692Z,82.14
2017-03-01T04:56:45.988Z,82.05
2017-03-01T04:57:07.772Z,82.06
2017-03-01T04:58:14.029Z,82.06
2017-03-01T04:58:41.006Z,82.07
2017-03-01T04:59:08.786Z,81.87
2017-03-01T05:00:17.193Z,81.98
2017-03-01T05:00:39.109Z,82.03
2017-03-01T05:01:08.186Z,82.02
2017-03-01T05:02:09.212Z,82.11
2017-03-01T05:02:31.559Z,82.42
2017-03-01T05:03:40.614Z,82.33
2017-03-01T05:05:15.341Z,82.81
2017-03-01T05:05:41.839Z,82.83
2017-03-01T05:06:16.049Z,82.97
2017-03-01T05:06:53.992Z,83.12
2017-03-01T05:07:20.514Z,83.13
2017-03-01T05:08:34.230Z,83.52
2017-03-01T05:09:06.645Z,83.79
2017-03-01T05:09:36.207Z,83.96
2017-03-01T05:10:32.515Z,84.09
2017-03-01T05:11:04.326Z,84.03
2017-03-01T05:11:38.563Z,84.21
2017-03-01T05:12:00.643Z,84.38
2017-03-01T05:13:44.573Z,84.39
2017-03-01T05:14:47.135Z,84.43
2017-03-01T05:15:14.697Z,84.47
2017-03-01T05:16:07.702Z,84.35
2017-03-01T05:16:29.458Z,84.21
2017-03-01T05:16:51.471Z,84.01
2017-03-01T05:17:13.377Z,83.99
2017-03-01T05:17:35.515Z,84.16
2017-03-01T05:18:02.121Z,84.27
2017-03-01T05:18:24.145Z,84.18
2017-03-01T05:18:48.888Z,84.22
2017-03-01T05:19:10.640Z,84.12
2017-03-01T05:19:32.684Z,84.15
2017-03-01T05:19:54.447Z,84.29
2017-03-01T05:20:16.205Z,84.21
2017-03-01T05:20:42.701Z,84.31
2017-03-01T05:21:11.378Z,84.12
2017-03-01T05:21:42.819Z,84.16
2017-03-01T05:22:04.698Z,84.17
2017-03-01T05:22:26.416Z,84.06
2017-03-01T05:22:53.051Z,84.05
2017-03-01T05:23:14.941Z,84.12
2017-03-01T05:23:36.782Z,84.07
2017-03-01T05:24:08.062Z,83.98
2017-03-01T05:24:29.807Z,83.79
2017-03-01T05:25:41.935Z,83.92
2017-03-01T05:26:13.270Z,84.04
2017-03-01T05:27:53.260Z,83.82
2017-03-01T05:28:15.022Z,83.82
2017-03-01T05:28:46.335Z,84.02
2017-03-01T05:29:11.045Z,83.90
2017-03-01T05:29:42.308Z,83.80
2017-03-01T05:30:04.146Z,83.85
2017-03-01T05:30:35.453Z,83.91
2017-03-01T05:30:57.287Z,83.89
2017-03-01T05:31:28.536Z,84.09
2017-03-01T05:31:50.339Z,84.21
2017-03-01T05:32:16.873Z,84.03
2017-03-01T05:32:38.719Z,84.02
2017-03-01T05:33:41.764Z,83.88
2017-03-01T05:34:03.491Z,84.01
2017-03-01T05:34:25.302Z,84.20
2017-03-01T05:34:51.812Z,83.93
2017-03-01T05:35:13.636Z,84.11
2017-03-01T05:35:44.895Z,84.18
2017-03-01T05:36:06.697Z,84.18
2017-03-01T05:36:28.410Z,84.34
2017-03-01T05:36:55.027Z,84.32
2017-03-01T05:37:16.881Z,84.38
2017-03-01T05:37:43.608Z,84.49
2017-03-01T05:38:05.419Z,84.38
2017-03-01T05:38:31.887Z,84.45
2017-03-01T05:38:53.623Z,84.40
2017-03-01T05:39:15.351Z,84.36
2017-03-01T05:39:41.847Z,84.16
2017-03-01T05:40:03.574Z,84.21
2017-03-01T05:40:25.284Z,84.25
2017-03-01T05:40:47.055Z,84.18
2017-03-01T05:41:08.756Z,84.36
2017-03-01T05:41:35.242Z,84.40
2017-03-01T05:41:59.778Z,84.40
2017-03-01T05:42:21.524Z,84.36
2017-03-01T05:43:24.623Z,84.42
2017-03-01T05:43:46.348Z,84.42
2017-03-01T05:44:49.413Z,84.56
2017-03-01T05:45:11.142Z,84.73
2017-03-01T05:45:40.607Z,84.78
2017-03-01T05:46:02.332Z,84.90
2017-03-01T05:47:04.856Z,84.73
2017-03-01T05:47:31.382Z,84.93
2017-03-01T05:47:53.220Z,84.88
2017-03-01T05:48:24.487Z,84.89
2017-03-01T05:48:46.201Z,85.11
2017-03-01T05:49:07.971Z,85.14
2017-03-01T05:49:34.646Z,85.19
2017-03-01T05:49:56.380Z,85.17
2017-03-01T05:50:22.934Z,85.20
2017-03-01T05:50:44.684Z,85.17
2017-03-01T05:51:11.210Z,85.20
2017-03-01T05:51:32.938Z,85.42
2017-03-01T05:51:59.468Z,85.48
2017-03-01T05:52:21.223Z,85.57
2017-03-01T05:52:50.623Z,85.75
2017-03-01T05:53:12.435Z,85.66
2017-03-01T05:53:38.929Z,85.54
2017-03-01T05:54:00.666Z,85.63
2017-03-01T05:54:27.180Z,85.79
2017-03-01T05:54:48.890Z,85.69
2017-03-01T05:55:15.574Z,85.86
2017-03-01T05:55:44.962Z,85.90
2017-03-01T05:56:11.478Z,85.90
2017-03-01T05:56:33.319Z,86.03
2017-03-01T05:57:40.590Z,86.50
2017-03-01T05:58:02.330Z,86.61
2017-03-01T05:59:05.497Z,86.74
2017-03-01T05:59:27.226Z,86.82
2017-03-01T06:00:30.339Z,86.72
2017-03-01T06:00:52.109Z,86.72
2017-03-01T06:01:55.188Z,86.75
2017-03-01T06:02:16.874Z,86.79
2017-03-01T06:03:24.161Z,86.89
2017-03-01T06:03:45.896Z,86.77
2017-03-01T06:04:12.386Z,86.69
2017-03-01T06:04:37.082Z,86.59
2017-03-01T06:05:03.583Z,86.50
2017-03-01T06:05:25.299Z,86.48
2017-03-01T06:05:51.833Z,86.40
2017-03-01T06:06:13.570Z,86.55
2017-03-01T06:06:40.095Z,86.49
2017-03-01T06:07:01.863Z,86.48
2017-03-01T06:07:23.667Z,86.48
2017-03-01T06:08:22.032Z,86.27
2017-03-01T06:08:43.772Z,86.29
2017-03-01T06:10:08.615Z,86.55
2017-03-01T06:11:11.919Z,86.27
2017-03-01T06:12:41.487Z,86.16
2017-03-01T06:13:03.299Z,86.05
2017-03-01T06:14:10.610Z,86.08
2017-03-01T06:14:34.959Z,86.12
2017-03-01T06:15:38.016Z,86.15
2017-03-01T06:15:59.731Z,86.27
2017-03-01T06:17:11.847Z,86.18
2017-03-01T06:17:33.568Z,86.24
2017-03-01T06:18:45.660Z,86.19
2017-03-01T06:19:07.429Z,86.18
2017-03-01T06:20:14.736Z,86.31
2017-03-01T06:20:36.630Z,86.37
2017-03-01T06:21:07.903Z,86.37
2017-03-01T06:21:32.430Z,86.36
2017-03-01T06:22:39.590Z,86.18
2017-03-01T06:23:02.445Z,86.10
2017-03-01T06:23:29.065Z,85.96
2017-03-01T06:23:50.791Z,85.90
2017-03-01T06:24:58.084Z,85.94
2017-03-01T06:25:19.807Z,85.94
2017-03-01T06:26:08.024Z,85.87
2017-03-01T06:26:39.278Z,86.02
2017-03-01T06:27:01.056Z,86.04
2017-03-01T06:27:27.643Z,85.97
2017-03-01T06:27:50.404Z,86.02
2017-03-01T06:28:12.247Z,86.19
2017-03-01T06:28:34.035Z,85.84
2017-03-01T06:28:55.833Z,85.75
2017-03-01T06:29:22.328Z,85.73
2017-03-01T06:29:44.129Z,85.59
2017-03-01T06:30:10.608Z,85.59
2017-03-01T06:30:32.311Z,85.84
2017-03-01T06:30:54.099Z,85.67
2017-03-01T06:31:57.158Z,85.55
2017-03-01T06:32:18.962Z,85.38
2017-03-01T06:32:40.665Z,85.53
2017-03-01T06:33:02.374Z,85.58
2017-03-01T06:33:24.064Z,85.51
2017-03-01T06:33:45.862Z,85.52
2017-03-01T06:34:07.595Z,85.54
2017-03-01T06:34:29.301Z,85.50
2017-03-01T06:34:51.001Z,85.57
2017-03-01T06:35:22.253Z,85.27
2017-03-01T06:35:44.046Z,85.20